| time (UTC) | temp F | wind direction | speed knots | gust knots | rain 1hr in | rain 24hr in | rain mn in | humidity % | barometer mb |
| 20260507050303 | 47 | 30 | 0.9 | 2.6 | 0.00 | 0.01 | 0.00 | 89 | 1015.8 |
| 20260507040304 | 47 | 11 | 0.9 | 2.6 | 0.00 | 0.01 | 0.00 | 88 | 1015.2 |
| 20260507030804 | 47 | 22 | 0.9 | 2.6 | 0.00 | 0.02 | 0.00 | 88 | 1014.9 |
| 20260507030303 | 47 | 22 | 0.0 | 2.6 | 0.00 | 0.02 | 0.00 | 88 | 1014.9 |
| 20260507010804 | 47 | 22 | 0.0 | 1.7 | 0.00 | 0.02 | 0.00 | 88 | 1014.4 |
| 20260507010306 | 47 | 22 | 0.9 | 1.7 | 0.00 | 0.02 | 0.00 | 88 | 1014.3 |
| 20260507000803 | 50 | 22 | 0.0 | 0.0 | 0.00 | 0.02 | 0.00 | 85 | 1014.0 |
| 20260506230804 | 50 | 22 | 0.0 | 0.9 | 0.00 | 0.02 | 0.00 | 85 | 1013.9 |
| 20260506230304 | 50 | 22 | 0.9 | 2.6 | 0.00 | 0.02 | 0.00 | 85 | 1013.8 |
| 20260506220304 | 50 | 22 | 0.9 | 2.6 | 0.00 | 0.02 | 0.00 | 80 | 1013.4 |
| 20260506210804 | 51 | 22 | 0.9 | 1.7 | 0.00 | 0.02 | 0.02 | 78 | 1013.1 |
| 20260506210304 | 51 | 22 | 0.0 | 2.6 | 0.00 | 0.02 | 0.02 | 78 | 1013.0 |
| 20260506200304 | 51 | 22 | 0.0 | 2.6 | 0.00 | 0.02 | 0.02 | 77 | 1012.7 |
| 20260506190304 | 52 | 78 | 0.9 | 7.0 | 0.00 | 0.02 | 0.02 | 75 | 1012.2 |
| 20260506180303 | 52 | 89 | 2.6 | 10.4 | 0.00 | 0.02 | 0.02 | 76 | 1011.7 |
| 20260506170804 | 52 | 3 | 1.7 | 4.3 | 0.00 | 0.02 | 0.02 | 79 | 1011.1 |
| 20260506150804 | 54 | 48 | 2.6 | 7.0 | 0.00 | 0.02 | 0.02 | 71 | 1010.9 |
| 20260506140303 | 56 | 74 | 2.6 | 10.4 | 0.00 | 0.02 | 0.02 | 67 | 1010.5 |
| 20260506120304 | 58 | 59 | 1.7 | 12.2 | 0.00 | 0.02 | 0.02 | 66 | 1009.8 |
| 20260506110804 | 58 | 83 | 3.5 | 7.8 | 0.00 | 0.02 | 0.02 | 67 | 1009.8 |
| 20260506100804 | 59 | 80 | 2.6 | 6.1 | 0.00 | 0.02 | 0.02 | 72 | 1009.6 |
| 20260506100304 | 59 | 91 | 1.7 | 13.9 | 0.00 | 0.02 | 0.02 | 73 | 1009.5 |
| 20260506080804 | 52 | 32 | 0.9 | 4.3 | 0.00 | 0.02 | 0.02 | 93 | 1009.1 |
| 20260506080303 | 52 | 0 | 1.7 | 7.0 | 0.00 | 0.02 | 0.02 | 94 | 1009.1 |
| 20260506070804 | 50 | 352 | 1.7 | 6.1 | 0.00 | 0.02 | 0.02 | 96 | 1009.0 |